Nearby METAR Reports

 

KVCT - Victoria, Texas, USA
Distance from station: E 12mi, 20km
Updated: Fri, 27-May-2022 11:51pm CDT
Clear
Clear
 Wind from SE
Wind: SE 9 mph , 15 km/h
Temperature: 75°F , 24°C
Dew Point: 75°F , 24°C
Humidity: 100%
Barometer: 29.94 inHg , 1013.9 hPa
Clouds: Clear
Visibility: 9 miles , 14 km
2022/05/28 04:51 KVCT 280451Z AUTO 14008KT 9SM CLR 24/24 A2994 RMK AO2 SLP138 T02440239 $
KPKV - Port Lavaca, Texas, USA
Distance from station: ESE 31mi, 50km
Updated: Fri, 27-May-2022 11:46pm CDT
Clear
Clear
 Wind from SSE
Wind: SSE 5 mph , 7 km/h
Temperature: 77°F , 25°C
Dew Point: 73°F , 23°C
Humidity: 89%
Barometer: 29.95 inHg , 1014.2 hPa
Clouds: Clear
Visibility: 10 miles , 16 km
2022/05/28 04:46 KPKV 280446Z AUTO 15004KT 10SM CLR 25/23 A2995 RMK AO2
 
KT20 - Gonzales Muni, Texas, USA
Distance from station: NNW 50mi, 81km
Updated: Sun, 22-May-2022 10:16am CDT
NOT Current
Mostly cloudy
Mostly cloudy
 Wind from N
Wind: N 9 mph , 15 km/h, Gust: 16 mph , 26 km/h
Temperature: 68°F , 20°C
Dew Point: 61°F , 16°C
Humidity: 78%
Barometer: 30.16 inHg , 1021.3 hPa
Clouds: Mostly cloudy
Visibility: 10 miles , 16 km
Cloud details: Partly cloudy 6000 ft
Mostly cloudy 7000 ft
Mostly cloudy 9000 ft
2022/05/22 15:16 KT20 221516Z AUTO 36008G14KT 10SM SCT060 BKN070 BKN090 20/16 A3016 RMK AO2
KBEA - Beeville Muni, Texas, USA
Distance from station: SW 51mi, 83km
Updated: Sat, 28-May-2022 12:15am CDT
Clear
Clear
 Wind from SSE
Wind: SSE 3 mph , 6 km/h
Temperature: 73°F , 23°C
Dew Point: 72°F , 22°C
Humidity: 94%
Barometer: 29.93 inHg , 1013.5 hPa
Clouds: Clear
Visibility: 10 miles , 16 km
2022/05/28 05:15 KBEA 280515Z AUTO 16003KT 10SM CLR 23/22 A2993 RMK AO2 T02320223
 
KRKP - Rockport, Texas, USA
Distance from station: S 53mi, 86km
Updated: Fri, 27-May-2022 11:53pm CDT
Clear
Clear
 Wind from SSE
Wind: SSE 7 mph , 11 km/h
Temperature: 81°F , 27°C
Heat Index: 87°F , 31°C
Dew Point: 75°F , 24°C
Humidity: 84%
Barometer: 29.93 inHg , 1013.5 hPa
Clouds: Clear
Visibility: 8 miles , 13 km
2022/05/28 04:53 KRKP 280453Z AUTO 16006KT 8SM CLR 27/24 A2993 RMK AO2 SLP135 T02670244 $
KPSX - Palacios, Texas, USA
Distance from station: E 55mi, 88km
Updated: Fri, 27-May-2022 11:53pm CDT
Clear
Clear
 Wind from S
Wind: S 9 mph , 15 km/h
Temperature: 81°F , 27°C
Heat Index: 86°F , 30°C
Dew Point: 73°F , 23°C
Humidity: 79%
Barometer: 29.94 inHg , 1013.9 hPa
Clouds: Clear
Visibility: 10 miles , 16 km
2022/05/28 04:53 KPSX 280453Z AUTO 18008KT 10SM CLR 27/23 A2994 RMK AO2 SLP137 T02720233 $
 
KTFP - Ingleside/Tp Mcc, Texas, USA
Distance from station: S 65mi, 104km
Updated: Fri, 27-May-2022 11:35pm CDT
Partly cloudy
Partly cloudy
 Wind from S
Wind: S 7 mph , 11 km/h
Temperature: 79°F , 26°C
Dew Point: 77°F , 25°C
Humidity: 94%
Barometer: 29.93 inHg , 1013.5 hPa
Clouds: Partly cloudy
Visibility: 10 miles , 16 km
Cloud details: Partly cloudy 900 ft
2022/05/28 04:35 KTFP 280435Z AUTO 18006KT 10SM SCT009 26/25 A2993 RMK AO2 T02620247
K66R - Columbus, Texas, USA
Distance from station: NE 66mi, 106km
Updated: Fri, 27-May-2022 11:35pm CDT
Clear
Clear
 Wind from S
Wind: S 3 mph , 6 km/h
Temperature: 77°F , 25°C
Dew Point: 72°F , 22°C
Humidity: 83%
Barometer: 29.95 inHg , 1014.2 hPa
Clouds: Clear
Visibility: 10 miles , 16 km
2022/05/28 04:35 K66R 280435Z AUTO 18003KT 10SM CLR 25/22 A2995 RMK AO2 T02500220
 
KARM - Wharton, Texas, USA
Distance from station: ENE 66mi, 106km
Updated: Fri, 27-May-2022 11:50pm CDT
Clear
Clear
 Wind from S
Wind: S 3 mph , 6 km/h
Temperature: 75°F , 24°C
Dew Point: 73°F , 23°C
Humidity: 94%
Barometer: 29.96 inHg , 1014.6 hPa
Clouds: Clear
Visibility: 10 miles , 16 km
2022/05/28 04:50 KARM 280450Z AUTO 19003KT 10SM CLR 24/23 A2996 RMK AO2 T02400226
KRAS - Port Aransas, Texas, USA
Distance from station: S 71mi, 115km
Updated: Fri, 27-May-2022 11:55pm CDT
Mostly cloudy
Mostly cloudy
 Wind from SSE
Wind: SSE 12 mph , 19 km/h
Temperature: 79°F , 26°C
Dew Point: 77°F , 25°C
Humidity: 94%
Barometer: 29.96 inHg , 1014.6 hPa
Clouds: Mostly cloudy
Visibility: 10 miles , 16 km
Cloud details: Mostly cloudy 800 ft
2022/05/28 04:55 KRAS 280455Z AUTO 15010KT 10SM BKN008 26/25 A2996 RMK AO2 T02640249
 
KELA - Eagle Lake, Texas, USA
Distance from station: NE 72mi, 115km
Updated: Fri, 27-May-2022 11:15pm CDT
Clear
Clear
 Wind from calm
Wind: Calm
Temperature: 77°F , 25°C
Dew Point: 73°F , 23°C
Humidity: 89%
Barometer: 29.94 inHg , 1013.9 hPa
Clouds: Clear
Visibility: 10 miles , 16 km
2022/05/28 04:15 KELA 280415Z AUTO 00000KT 10SM CLR 25/23 A2994 RMK AO2 T02500225
K3T5 - La Grange, Texas, USA
Distance from station: N 73mi, 118km
Updated: Fri, 27-May-2022 11:55pm CDT
Drizzle, Overcast
Drizzle, Overcast
 Wind from SSE
Wind: SSE 5 mph , 7 km/h
Temperature: 79°F , 26°C
Dew Point: 70°F , 21°C
Humidity: 74%
Barometer: 29.92 inHg , 1013.2 hPa
Summary: Drizzle
Clouds: Overcast
Visibility: 3/4 mile , 1.2 km
Cloud details: Overcast 500 ft
2022/05/28 04:55 K3T5 280455Z AUTO 16004KT 3/4SM DZ VV005 26/21 A2992 RMK AO2 VIS 1/4V2 T02600212
 
KBYY - Bay City, Texas, USA
Distance from station: E 77mi, 124km
Updated: Fri, 27-May-2022 11:55pm CDT
Mist, Clear
Mist, Clear
 Wind from calm
Wind: Calm
Temperature: 73°F , 23°C
Dew Point: 72°F , 22°C
Humidity: 94%
Barometer: 29.95 inHg , 1014.2 hPa
Summary: Mist
Clouds: Clear
Visibility: 3 miles , 5 km
2022/05/28 04:55 KBYY 280455Z AUTO 00000KT 3SM BR CLR 23/22 A2995 RMK AO2 T02310227
KCRP - Corpus Christi, Texas, USA
Distance from station: SSW 78mi, 126km
Updated: Fri, 27-May-2022 11:51pm CDT
Few Clouds
Few Clouds
 Wind from SSE
Wind: SSE 7 mph , 11 km/h
Temperature: 75°F , 24°C
Dew Point: 75°F , 24°C
Humidity: 100%
Barometer: 29.93 inHg , 1013.5 hPa
Clouds: Few Clouds
Visibility: 9 miles , 14 km
Cloud details: Few Clouds 1000 ft
2022/05/28 04:51 KCRP 280451Z 16006KT 9SM FEW010 24/24 A2993 RMK AO2 SLP135 T02440244
 
KNGP - C. Christi Nas, Texas, USA
Distance from station: S 81mi, 130km
Updated: Fri, 27-May-2022 11:56pm CDT
Partly cloudy
Partly cloudy
 Wind from SSE
Wind: SSE 13 mph , 20 km/h
Temperature: 81°F , 27°C
Heat Index: 88°F , 31°C
Dew Point: 77°F , 25°C
Humidity: 89%
Barometer: 29.93 inHg , 1013.5 hPa
Clouds: Partly cloudy
Visibility: 10 miles , 16 km
Cloud details: Partly cloudy 900 ft
2022/05/28 04:56 KNGP 280456Z AUTO 16011KT 10SM SCT009 27/25 A2993 RMK AO2 SLP134 T02720250 $
KRBO - Robstown/Nueces, Texas, USA
Distance from station: SSW 81mi, 130km
Updated: Fri, 27-May-2022 11:55pm CDT
Clear
Clear
 Wind from SE
Wind: SE 8 mph , 13 km/h
Temperature: 77°F , 25°C
Dew Point: 75°F , 24°C
Humidity: 94%
Barometer: 29.94 inHg , 1013.9 hPa
Clouds: Clear
Visibility: 10 miles , 16 km
2022/05/28 04:55 KRBO 280455Z AUTO 13007KT 10SM CLR 25/24 A2994 RMK AO2 T02500242
 
KBAZ - New Braunfels, Texas, USA
Distance from station: NW 81mi, 131km
Updated: Fri, 27-May-2022 11:51pm CDT
Clear
Clear
 Wind from SE
Wind: SE 6 mph , 9 km/h
Temperature: 73°F , 23°C
Dew Point: 64°F , 18°C
Humidity: 74%
Barometer: 29.93 inHg , 1013.5 hPa
Clouds: Clear
Visibility: 10 miles , 16 km
2022/05/28 04:51 KBAZ 280451Z AUTO 14005KT 10SM CLR 23/18 A2993 RMK AO2 SLP124 T02330183 403610200
KRND - Randolph Afb, Texas, USA
Distance from station: NW 82mi, 132km
Updated: Fri, 27-May-2022 11:56pm CDT
Clear
Clear
 Wind from SE
Wind: SE 7 mph , 11 km/h
Temperature: 77°F , 25°C
Dew Point: 66°F , 19°C
Humidity: 69%
Barometer: 29.92 inHg , 1013.2 hPa
Clouds: Clear
Visibility: 10 miles , 16 km
2022/05/28 04:56 KRND 280456Z AUTO 13006KT 10SM CLR 25/19 A2992 RMK AO2 SLP123 T02450191
 
KHYI - San Marcos, Texas, USA
Distance from station: NNW 84mi, 135km
Updated: Fri, 27-May-2022 11:56pm CDT
Clear
Clear
 Wind from ESE
Wind: ESE 6 mph , 9 km/h
Temperature: 79°F , 26°C
Dew Point: 64°F , 18°C
Humidity: 61%
Barometer: 29.95 inHg , 1014.2 hPa
Clouds: Clear
Visibility: 10 miles , 16 km
2022/05/28 04:56 KHYI 280456Z AUTO 12005KT 10SM CLR 26/18 A2995 RMK AO2 SLP131 T02560183
KPEZ - Pleasanton Muni, Texas, USA
Distance from station: W 84mi, 135km
Updated: Fri, 27-May-2022 11:55pm CDT
Clear
Clear
 Wind from SE
Wind: SE 7 mph , 11 km/h
Temperature: 82°F , 28°C
Heat Index: 86°F , 30°C
Dew Point: 70°F , 21°C
Humidity: 66%
Barometer: 29.93 inHg , 1013.5 hPa
Clouds: Clear
Visibility: 10 miles , 16 km
2022/05/28 04:55 KPEZ 280455Z AUTO 14006KT 10SM CLR 28/21 A2993 RMK AO2 T02830210